createdAt,value
2023-01-25T05:00:12.176Z,21.40
2023-01-25T05:03:16.101Z,22.77
2023-01-25T05:06:18.429Z,21.33
2023-01-25T05:09:21.501Z,22.25
2023-01-25T05:12:23.992Z,22.70
2023-01-25T05:15:26.632Z,21.75
2023-01-25T05:18:35.753Z,22.37
2023-01-25T05:21:58.332Z,22.77
2023-01-25T05:25:02.819Z,22.35
2023-01-25T05:28:06.843Z,22.70
2023-01-25T05:31:09.930Z,22.27
2023-01-25T05:34:12.450Z,22.80
2023-01-25T05:37:17.648Z,22.58
2023-01-25T05:40:20.401Z,21.63
2023-01-25T05:43:24.285Z,21.20
2023-01-25T05:46:28.479Z,19.30
2023-01-25T05:49:31.335Z,20.45
2023-01-25T05:52:33.986Z,20.02
2023-01-25T05:55:36.907Z,19.73
2023-01-25T05:58:39.729Z,20.02
2023-01-25T06:01:42.275Z,19.27
2023-01-25T06:04:44.754Z,17.77
2023-01-25T06:07:47.343Z,17.77
2023-01-25T06:10:50.769Z,17.12
2023-01-25T06:13:53.504Z,18.60
2023-01-25T06:16:56.108Z,18.10
2023-01-25T06:19:58.627Z,17.37
2023-01-25T06:23:01.774Z,15.05
2023-01-25T06:26:07.179Z,14.55
2023-01-25T06:29:09.746Z,14.18
2023-01-25T06:32:11.968Z,13.88
2023-01-25T06:35:14.491Z,12.90
2023-01-25T06:38:16.771Z,14.52
2023-01-25T06:41:20.228Z,13.00
2023-01-25T06:44:22.377Z,13.13
2023-01-25T06:47:24.761Z,13.07
2023-01-25T06:50:27.170Z,14.50
2023-01-25T06:53:31.946Z,14.57
2023-01-25T06:56:34.105Z,15.00
2023-01-25T06:59:36.530Z,13.05
2023-01-25T07:02:38.928Z,12.68
2023-01-25T07:05:41.396Z,13.40
2023-01-25T07:08:43.993Z,12.63
2023-01-25T07:11:47.333Z,13.38
2023-01-25T07:14:49.549Z,11.98
2023-01-25T07:17:52.481Z,12.90
2023-01-25T07:20:54.700Z,12.80
2023-01-25T07:24:02.379Z,13.40
2023-01-25T07:27:04.587Z,12.55
2023-01-25T07:30:08.498Z,12.77
2023-01-25T07:33:11.391Z,13.10
2023-01-25T07:36:14.227Z,13.68
2023-01-25T07:39:17.111Z,13.62
2023-01-25T07:42:19.568Z,13.23
2023-01-25T07:45:30.511Z,14.02
2023-01-25T07:48:33.236Z,12.57
2023-01-25T07:51:35.387Z,12.77
2023-01-25T07:54:37.804Z,12.20
2023-01-25T07:57:40.055Z,12.77
2023-01-25T08:00:42.463Z,13.80
2023-01-25T08:03:46.194Z,13.80
2023-01-25T08:06:48.349Z,13.55
2023-01-25T08:09:50.703Z,16.02
2023-01-25T08:12:52.903Z,14.05
2023-01-25T08:15:56.256Z,14.77
2023-01-25T08:19:00.447Z,14.27
2023-01-25T08:22:02.923Z,14.27
2023-01-25T08:25:05.529Z,13.70
2023-01-25T08:28:07.979Z,15.57
2023-01-25T08:31:21.575Z,14.23
2023-01-25T08:34:24.021Z,13.13
2023-01-25T08:37:29.543Z,14.18
2023-01-25T08:40:31.907Z,13.73
2023-01-25T08:43:34.342Z,14.30
2023-01-25T08:46:36.744Z,14.02
2023-01-25T08:49:38.944Z,14.32
2023-01-25T08:52:41.356Z,14.52
2023-01-25T08:55:43.570Z,12.98
2023-01-25T08:58:47.674Z,11.98
2023-01-25T09:01:49.905Z,12.27
2023-01-25T09:04:53.215Z,13.15
2023-01-25T09:07:55.610Z,12.98
2023-01-25T09:11:07.045Z,13.02
2023-01-25T09:14:09.254Z,13.18
2023-01-25T09:17:11.648Z,13.85
2023-01-25T09:20:15.828Z,13.98
2023-01-25T09:23:22.792Z,18.50
2023-01-25T09:29:27.694Z,16.30
2023-01-25T09:32:29.865Z,13.73
2023-01-25T09:35:35.659Z,14.35
2023-01-25T09:38:38.205Z,19.77
2023-01-25T09:41:46.554Z,20.90
2023-01-25T09:45:13.677Z,21.37
2023-01-25T09:48:41.169Z,15.38
2023-01-25T09:52:10.320Z,15.73
2023-01-25T09:55:16.646Z,15.05
2023-01-25T10:02:04.472Z,16.00
2023-01-25T10:05:18.270Z,14.65
2023-01-25T10:08:44.705Z,14.98
2023-01-25T10:11:47.966Z,13.98
2023-01-25T10:14:51.176Z,14.25
2023-01-25T10:18:39.170Z,14.85
2023-01-25T10:21:46.002Z,15.02
2023-01-25T10:24:51.188Z,14.70
2023-01-25T10:28:17.730Z,14.20
2023-01-25T10:31:27.216Z,15.75
2023-01-25T10:34:50.753Z,15.23
2023-01-25T10:38:07.068Z,14.85
2023-01-25T10:41:16.666Z,14.30
2023-01-25T10:44:21.742Z,14.32
2023-01-25T10:47:28.897Z,12.88
2023-01-25T10:50:46.506Z,12.98
2023-01-25T10:54:00.575Z,12.75
2023-01-25T10:57:07.086Z,12.57
2023-01-25T11:00:40.022Z,12.70
2023-01-25T11:03:46.858Z,12.20
2023-01-25T11:09:54.239Z,13.62
2023-01-25T11:13:17.292Z,13.00
2023-01-25T11:16:35.702Z,12.02
2023-01-25T11:19:40.270Z,12.90
2023-01-25T11:22:53.972Z,13.65
2023-01-25T11:26:15.704Z,12.48
2023-01-25T11:29:19.749Z,12.27
2023-01-25T11:32:25.016Z,12.63
2023-01-25T11:35:32.946Z,12.57
2023-01-25T11:38:35.888Z,11.73
2023-01-25T11:41:44.127Z,12.35
2023-01-25T11:44:55.686Z,13.50
2023-01-25T11:48:24.541Z,12.90
2023-01-25T11:51:33.512Z,13.38
2023-01-25T11:54:49.222Z,12.25
2023-01-25T11:58:10.234Z,12.45
2023-01-25T12:01:24.703Z,14.32
2023-01-25T12:04:48.000Z,13.55
2023-01-25T12:08:12.060Z,13.35
2023-01-25T12:11:20.338Z,13.40
2023-01-25T12:14:55.627Z,14.25
2023-01-25T12:18:26.161Z,14.32
2023-01-25T12:21:54.815Z,13.30
2023-01-25T12:25:35.826Z,14.00
2023-01-25T12:29:14.556Z,14.45
2023-01-25T12:32:39.106Z,15.00
2023-01-25T12:36:01.197Z,13.68
2023-01-25T12:39:07.135Z,15.27
2023-01-25T12:42:22.320Z,14.67
2023-01-25T12:45:28.012Z,14.07
2023-01-25T12:48:36.585Z,14.63
2023-01-25T12:51:41.704Z,13.35
2023-01-25T12:54:47.530Z,13.55
2023-01-25T12:58:14.434Z,12.48
2023-01-25T13:01:26.691Z,13.50
2023-01-25T13:05:03.227Z,12.65
2023-01-25T13:08:31.173Z,13.48
2023-01-25T13:11:40.306Z,13.93
2023-01-25T13:14:42.732Z,12.95
2023-01-25T13:17:45.288Z,13.38
2023-01-25T13:20:51.192Z,13.62
2023-01-25T13:24:12.710Z,13.90
2023-01-25T13:27:26.483Z,13.85
2023-01-25T13:30:32.711Z,14.20
2023-01-25T13:33:36.005Z,13.60
2023-01-25T13:36:45.311Z,13.25
2023-01-25T13:39:53.724Z,12.55
2023-01-25T13:43:02.021Z,14.05
2023-01-25T13:46:06.699Z,13.20
2023-01-25T13:49:20.981Z,13.82
2023-01-25T13:52:25.611Z,13.93
2023-01-25T13:55:29.826Z,14.23
2023-01-25T13:58:36.290Z,14.38
2023-01-25T14:01:38.748Z,13.90
2023-01-25T14:04:41.370Z,38.00
2023-01-25T14:07:45.551Z,13.30
2023-01-25T14:10:49.501Z,12.02
2023-01-25T14:14:22.787Z,13.35
2023-01-25T14:17:25.529Z,14.57
2023-01-25T14:20:27.681Z,14.60
2023-01-25T14:23:30.468Z,13.23
2023-01-25T14:26:39.044Z,16.02
2023-01-25T14:29:41.878Z,13.50
2023-01-25T14:32:44.093Z,16.95
2023-01-25T14:35:55.103Z,22.73
2023-01-25T14:38:58.950Z,12.90
2023-01-25T14:42:02.137Z,13.23
2023-01-25T14:45:04.762Z,13.77
2023-01-25T14:48:41.418Z,20.27
2023-01-25T14:51:45.354Z,20.70
2023-01-25T14:54:50.839Z,15.15
2023-01-25T14:57:57.867Z,15.60
2023-01-25T15:01:02.940Z,15.00
2023-01-25T15:04:11.785Z,15.07
2023-01-25T15:07:51.992Z,16.37
2023-01-25T15:10:56.861Z,14.70
2023-01-25T15:14:04.486Z,14.98
2023-01-25T15:17:06.626Z,17.42
2023-01-25T15:20:31.025Z,17.90
2023-01-25T15:23:33.447Z,16.02
2023-01-25T15:26:36.334Z,15.85
2023-01-25T15:29:40.134Z,15.43
2023-01-25T15:32:44.051Z,15.75
2023-01-25T15:35:46.549Z,17.60
2023-01-25T15:38:49.050Z,17.62
2023-01-25T15:41:51.210Z,16.85
2023-01-25T15:44:53.575Z,16.75
2023-01-25T15:47:55.688Z,16.37
2023-01-25T15:50:58.727Z,16.17
2023-01-25T15:54:00.955Z,16.12
2023-01-25T15:57:03.467Z,16.62
2023-01-25T16:00:06.731Z,17.65
2023-01-25T16:03:09.157Z,17.25
2023-01-25T16:06:40.594Z,17.95
2023-01-25T16:09:42.995Z,18.37
2023-01-25T16:12:45.541Z,19.20
2023-01-25T16:15:52.070Z,17.85
2023-01-25T16:18:54.190Z,19.40
2023-01-25T16:21:57.051Z,17.35
2023-01-25T16:25:00.818Z,17.85
2023-01-25T16:28:03.260Z,18.17
2023-01-25T16:31:06.637Z,18.37
2023-01-25T16:34:09.407Z,17.40
2023-01-25T16:37:15.467Z,18.37
2023-01-25T16:40:24.515Z,17.73
2023-01-25T16:43:31.710Z,18.60
2023-01-25T16:46:41.192Z,20.30
2023-01-25T16:49:43.337Z,26.33
2023-01-25T16:52:46.046Z,29.05
2023-01-25T16:55:49.449Z,21.35
2023-01-25T16:58:53.183Z,23.67
